createdAt,value
2022-10-24T00:00:59.646Z,0
2022-10-24T00:03:58.523Z,0
2022-10-24T00:06:58.066Z,0
2022-10-24T00:09:59.522Z,0
2022-10-24T00:12:58.811Z,0.3333333333333333
2022-10-24T00:15:58.673Z,0.3333333333333333
2022-10-24T00:18:58.113Z,0
2022-10-24T00:21:58.747Z,0
2022-10-24T00:25:01.893Z,0
2022-10-24T00:27:58.801Z,0.3333333333333333
2022-10-24T00:30:59.588Z,0
2022-10-24T00:33:58.669Z,0.3333333333333333
2022-10-24T00:36:58.528Z,0
2022-10-24T00:39:59.868Z,0
2022-10-24T00:42:58.849Z,0.3333333333333333
2022-10-24T00:45:58.562Z,0
2022-10-24T00:48:58.447Z,0
2022-10-24T00:51:59.493Z,0
2022-10-24T00:54:58.669Z,0
2022-10-24T00:57:58.428Z,0
2022-10-24T01:00:59.596Z,0
2022-10-24T01:03:58.952Z,0
2022-10-24T01:06:59.167Z,0.3333333333333333
2022-10-24T01:09:59.804Z,0
2022-10-24T01:12:58.173Z,1.6666666666666667
2022-10-24T01:15:59.193Z,0
2022-10-24T01:18:58.947Z,0.3333333333333333
2022-10-24T01:21:58.701Z,0
2022-10-24T01:24:58.967Z,0
2022-10-24T01:27:59.383Z,0.3333333333333333
2022-10-24T01:30:58.768Z,0
2022-10-24T01:33:58.255Z,0
2022-10-24T01:36:58.450Z,0
2022-10-24T01:39:58.727Z,0
2022-10-24T01:42:58.672Z,0.3333333333333333
2022-10-24T01:45:59.247Z,0
2022-10-24T01:48:59.243Z,0
2022-10-24T01:51:59.434Z,0
2022-10-24T01:54:58.672Z,0
2022-10-24T01:57:59.137Z,0
2022-10-24T02:00:59.407Z,0
2022-10-24T02:03:58.842Z,0
2022-10-24T02:06:58.388Z,0
2022-10-24T02:09:59.172Z,0
2022-10-24T02:12:59.180Z,0
2022-10-24T02:15:59.177Z,0
2022-10-24T02:18:59.152Z,0
2022-10-24T02:21:58.838Z,0
2022-10-24T02:24:59.183Z,0
2022-10-24T02:27:59.126Z,0
2022-10-24T02:30:58.802Z,1.3333333333333333
2022-10-24T02:33:58.055Z,0
2022-10-24T02:36:58.234Z,0.6666666666666666
2022-10-24T02:39:58.928Z,0
2022-10-24T02:42:58.092Z,0.6666666666666666
2022-10-24T02:45:58.863Z,0
2022-10-24T02:48:58.870Z,0
2022-10-24T02:51:58.666Z,0
2022-10-24T02:54:59.132Z,0
2022-10-24T02:57:58.472Z,0.3333333333333333
2022-10-24T03:00:59.388Z,0.6666666666666666
2022-10-24T03:03:59.440Z,0
2022-10-24T03:06:58.633Z,0.3333333333333333
2022-10-24T03:09:58.962Z,0
2022-10-24T03:12:59.381Z,0
2022-10-24T03:15:58.937Z,0.3333333333333333
2022-10-24T03:18:58.479Z,0
2022-10-24T03:21:58.493Z,0
2022-10-24T03:24:58.477Z,0
2022-10-24T03:27:58.341Z,0
2022-10-24T03:30:59.301Z,0
2022-10-24T03:33:58.517Z,0.6666666666666666
2022-10-24T03:36:58.973Z,0
2022-10-24T03:39:59.086Z,0.3333333333333333
2022-10-24T03:42:58.327Z,0
2022-10-24T03:45:58.971Z,0
2022-10-24T03:48:58.947Z,0.3333333333333333
2022-10-24T03:51:58.959Z,0.3333333333333333
2022-10-24T03:54:58.973Z,0.6666666666666666
2022-10-24T03:57:57.983Z,0
2022-10-24T04:00:59.620Z,0
2022-10-24T04:03:58.980Z,0.6666666666666666
2022-10-24T04:06:58.621Z,0
2022-10-24T04:09:59.599Z,0
2022-10-24T04:12:58.284Z,0
2022-10-24T04:15:59.011Z,0
2022-10-24T04:18:59.100Z,0.3333333333333333
2022-10-24T04:21:59.192Z,0
2022-10-24T04:24:59.157Z,0.6666666666666666
2022-10-24T04:27:58.522Z,0
2022-10-24T04:30:59.094Z,0
2022-10-24T04:33:58.523Z,0
2022-10-24T04:36:59.091Z,0
2022-10-24T04:39:58.716Z,0
2022-10-24T04:42:58.334Z,0
2022-10-24T04:46:00.149Z,0
2022-10-24T04:48:59.435Z,0
2022-10-24T04:51:58.754Z,0
2022-10-24T04:54:58.946Z,0
2022-10-24T04:57:59.050Z,0
2022-10-24T05:01:00.232Z,0
2022-10-24T05:03:59.022Z,0
2022-10-24T05:06:58.933Z,0
2022-10-24T05:10:00.061Z,0
2022-10-24T05:12:58.852Z,0
2022-10-24T05:15:58.913Z,0
2022-10-24T05:18:58.837Z,0
2022-10-24T05:21:59.888Z,0
2022-10-24T05:24:59.739Z,0
2022-10-24T05:27:59.579Z,0.3333333333333333
2022-10-24T05:30:59.251Z,0
2022-10-24T05:33:59.071Z,0
2022-10-24T05:36:59.391Z,0
2022-10-24T05:39:59.647Z,0.6666666666666666
2022-10-24T05:42:59.420Z,2
2022-10-24T05:45:59.476Z,2.3333333333333335
2022-10-24T05:48:59.485Z,2.6666666666666665
2022-10-24T05:51:59.232Z,4
2022-10-24T05:55:07.675Z,5.333333333333333
2022-10-24T05:57:59.113Z,7.333333333333333
2022-10-24T06:00:59.417Z,9.333333333333334
2022-10-24T06:04:07.803Z,12.666666666666666
2022-10-24T06:06:59.160Z,15.333333333333334
2022-10-24T06:10:00.164Z,17
2022-10-24T06:12:59.193Z,18
2022-10-24T06:15:59.158Z,20.666666666666668
2022-10-24T06:18:59.484Z,23
2022-10-24T06:21:58.938Z,25
2022-10-24T06:24:58.860Z,24.666666666666668
2022-10-24T06:27:58.793Z,25.333333333333332
2022-10-24T06:30:58.737Z,27.333333333333332
2022-10-24T06:33:58.672Z,30
2022-10-24T06:36:58.779Z,31
2022-10-24T06:39:58.884Z,31
2022-10-24T06:42:58.860Z,27.333333333333332
2022-10-24T06:45:58.577Z,34.333333333333336
2022-10-24T06:48:58.400Z,46.666666666666664
2022-10-24T06:51:58.714Z,69
2022-10-24T06:54:58.483Z,68
2022-10-24T06:57:58.639Z,56.333333333333336
2022-10-24T07:00:59.613Z,62.333333333333336
2022-10-24T07:03:58.587Z,81.66666666666667
2022-10-24T07:06:59.469Z,123.66666666666667
2022-10-24T07:09:58.458Z,177
2022-10-24T07:12:58.508Z,272.3333333333333
2022-10-24T07:15:59.535Z,279.3333333333333
2022-10-24T07:18:59.096Z,224.33333333333334
2022-10-24T07:21:58.118Z,229.66666666666666
2022-10-24T07:24:59.092Z,219.66666666666666
2022-10-24T07:27:58.708Z,191.66666666666666
2022-10-24T07:30:59.155Z,110
2022-10-24T07:33:58.894Z,81.33333333333333
2022-10-24T07:36:58.335Z,76
2022-10-24T07:39:58.734Z,78.66666666666667
2022-10-24T07:42:58.808Z,108.33333333333333
2022-10-24T07:48:58.446Z,185
2022-10-24T07:51:59.996Z,205
2022-10-24T07:54:59.561Z,216
2022-10-24T07:57:58.629Z,232.66666666666666
2022-10-24T08:00:59.496Z,250.33333333333334
2022-10-24T08:03:58.492Z,288.3333333333333
2022-10-24T08:06:59.362Z,261.6666666666667
2022-10-24T08:09:59.233Z,136.66666666666666
2022-10-24T08:12:59.520Z,83.66666666666667
2022-10-24T08:15:58.635Z,104.33333333333333
2022-10-24T08:18:58.372Z,157.66666666666666
2022-10-24T08:21:59.308Z,140.33333333333334
2022-10-24T08:24:58.450Z,98.33333333333333
2022-10-24T08:27:58.371Z,53.333333333333336
2022-10-24T08:30:59.058Z,39
2022-10-24T08:33:58.878Z,75
2022-10-24T08:36:59.107Z,103
2022-10-24T08:39:58.948Z,128
2022-10-24T08:42:58.948Z,172
2022-10-24T08:45:58.783Z,180.66666666666666
2022-10-24T08:48:58.959Z,112.33333333333333
2022-10-24T08:51:58.529Z,111
2022-10-24T08:55:00.350Z,120.33333333333333
2022-10-24T08:57:59.312Z,145.33333333333334
2022-10-24T09:00:59.239Z,146
2022-10-24T09:03:58.833Z,142.33333333333334
2022-10-24T09:06:59.326Z,147.33333333333334
2022-10-24T09:09:58.635Z,152
2022-10-24T09:12:59.287Z,175.66666666666666
2022-10-24T09:15:59.602Z,199.33333333333334
2022-10-24T09:18:59.054Z,205.66666666666666
2022-10-24T09:21:59.462Z,155.66666666666666
2022-10-24T09:24:59.071Z,183.66666666666666
2022-10-24T09:27:59.297Z,232.33333333333334
2022-10-24T09:30:59.040Z,261.6666666666667
2022-10-24T09:33:58.638Z,300
2022-10-24T09:36:58.690Z,338.3333333333333
2022-10-24T09:39:59.258Z,355.3333333333333
2022-10-24T09:42:59.197Z,353.6666666666667
2022-10-24T09:45:59.136Z,353
2022-10-24T09:48:58.268Z,367.3333333333333
2022-10-24T09:51:59.168Z,374.6666666666667
2022-10-24T09:54:59.473Z,370.3333333333333
2022-10-24T09:57:59.000Z,361.3333333333333
2022-10-24T10:00:59.124Z,363
2022-10-24T10:03:58.526Z,367
2022-10-24T10:06:58.759Z,372.6666666666667
2022-10-24T10:09:59.958Z,386.3333333333333
2022-10-24T10:12:59.233Z,389.6666666666667
2022-10-24T10:15:59.443Z,367.6666666666667
2022-10-24T10:18:59.376Z,344.6666666666667
2022-10-24T10:21:58.996Z,329.3333333333333
2022-10-24T10:24:58.563Z,324
2022-10-24T10:28:01.033Z,312.3333333333333
2022-10-24T10:30:58.545Z,306
2022-10-24T10:33:59.051Z,291
2022-10-24T10:36:58.484Z,273
2022-10-24T10:39:59.436Z,250
2022-10-24T10:42:58.427Z,304
2022-10-24T10:45:59.259Z,370
2022-10-24T10:48:59.137Z,408.6666666666667
2022-10-24T10:51:59.300Z,451
2022-10-24T10:54:58.684Z,437.3333333333333
2022-10-24T10:57:58.596Z,420.6666666666667
2022-10-24T11:00:59.467Z,415.6666666666667
2022-10-24T11:04:18.288Z,401
2022-10-24T11:09:58.895Z,330
2022-10-24T11:12:58.652Z,324.3333333333333
2022-10-24T11:15:58.933Z,346
2022-10-24T11:18:58.803Z,366.6666666666667
2022-10-24T11:21:59.058Z,380
2022-10-24T11:24:59.743Z,412
2022-10-24T11:27:59.549Z,445.3333333333333
2022-10-24T11:30:59.668Z,448
2022-10-24T11:33:59.105Z,453.3333333333333
2022-10-24T11:36:58.750Z,455
2022-10-24T11:39:58.811Z,444.6666666666667
2022-10-24T11:42:58.519Z,513.6666666666666
2022-10-24T11:45:58.629Z,564
2022-10-24T11:48:58.464Z,571.3333333333334
2022-10-24T11:51:59.051Z,535.6666666666666
2022-10-24T11:54:59.269Z,592
2022-10-24T11:57:59.021Z,609
2022-10-24T12:00:59.694Z,650.6666666666666
2022-10-24T12:03:59.525Z,646
2022-10-24T12:06:58.235Z,659.3333333333334
2022-10-24T12:09:59.068Z,668
2022-10-24T12:12:59.504Z,674.6666666666666
2022-10-24T12:15:59.091Z,655
2022-10-24T12:18:58.571Z,617
2022-10-24T12:21:59.131Z,589
2022-10-24T12:24:58.800Z,544
2022-10-24T12:27:58.928Z,504.6666666666667
2022-10-24T12:30:58.982Z,483.3333333333333
2022-10-24T12:33:58.703Z,473.6666666666667
2022-10-24T12:36:59.138Z,466.3333333333333
2022-10-24T12:39:58.878Z,453.3333333333333
2022-10-24T12:42:59.004Z,421.3333333333333
2022-10-24T12:45:58.541Z,386
2022-10-24T12:48:59.448Z,373.3333333333333
2022-10-24T12:51:58.759Z,356.6666666666667
2022-10-24T12:54:59.005Z,334
2022-10-24T12:57:58.478Z,324
2022-10-24T13:01:00.013Z,351
2022-10-24T13:03:58.920Z,359
2022-10-24T13:06:58.420Z,370.6666666666667
2022-10-24T13:09:59.419Z,378.3333333333333
2022-10-24T13:12:59.352Z,370.6666666666667
2022-10-24T13:15:59.224Z,372
2022-10-24T13:18:59.300Z,385
2022-10-24T13:21:58.606Z,403.3333333333333
2022-10-24T13:24:58.566Z,430.6666666666667
2022-10-24T13:27:59.169Z,468
2022-10-24T13:30:59.530Z,505
2022-10-24T13:33:58.999Z,522
2022-10-24T13:36:58.594Z,541.6666666666666
2022-10-24T13:39:59.181Z,554.6666666666666
2022-10-24T13:42:58.914Z,519
2022-10-24T13:45:59.528Z,458
2022-10-24T13:48:58.821Z,433.6666666666667
2022-10-24T13:51:58.853Z,419.3333333333333
2022-10-24T13:55:03.017Z,408
2022-10-24T13:57:58.653Z,409.6666666666667
2022-10-24T14:00:59.972Z,398
2022-10-24T14:03:58.949Z,391.6666666666667
2022-10-24T14:06:58.983Z,389
2022-10-24T14:09:59.189Z,381.6666666666667
2022-10-24T14:12:59.489Z,366.6666666666667
2022-10-24T14:15:59.537Z,368.6666666666667
2022-10-24T14:18:59.509Z,377
2022-10-24T14:21:58.585Z,370.3333333333333
2022-10-24T14:24:59.444Z,342.6666666666667
2022-10-24T14:27:59.443Z,315.3333333333333
2022-10-24T14:31:00.220Z,289.3333333333333
2022-10-24T14:33:58.583Z,270.3333333333333
2022-10-24T14:36:59.141Z,253.66666666666666
2022-10-24T14:39:59.105Z,231.66666666666666
2022-10-24T14:42:58.974Z,220.66666666666666
2022-10-24T14:46:00.277Z,217
2022-10-24T14:48:59.785Z,206.33333333333334
2022-10-24T14:51:58.830Z,187.33333333333334
2022-10-24T14:54:58.920Z,155.66666666666666
2022-10-24T14:57:59.274Z,139
2022-10-24T15:00:59.547Z,133.33333333333334
2022-10-24T15:03:58.489Z,127.66666666666667
2022-10-24T15:06:58.899Z,123.33333333333333
2022-10-24T15:09:58.931Z,121.66666666666667
2022-10-24T15:12:59.181Z,125.33333333333333
2022-10-24T15:15:59.227Z,136.66666666666666
2022-10-24T15:18:58.597Z,155.66666666666666
2022-10-24T15:21:58.714Z,176
2022-10-24T15:24:58.604Z,202
2022-10-24T15:27:59.538Z,230
2022-10-24T15:30:59.456Z,245.33333333333334
2022-10-24T15:33:59.510Z,240
2022-10-24T15:36:59.357Z,233.33333333333334
2022-10-24T15:39:59.554Z,226.33333333333334
2022-10-24T15:42:58.653Z,212.66666666666666
2022-10-24T15:46:00.154Z,170
2022-10-24T15:48:59.321Z,113
2022-10-24T15:51:58.722Z,74.66666666666667
2022-10-24T15:54:59.760Z,62
2022-10-24T15:57:59.663Z,48.333333333333336
2022-10-24T16:01:00.478Z,41.333333333333336
2022-10-24T16:03:58.971Z,35
2022-10-24T16:06:59.772Z,27.666666666666668
2022-10-24T16:09:59.417Z,22
2022-10-24T16:12:59.069Z,17
2022-10-24T16:15:59.245Z,13.333333333333334
2022-10-24T16:18:59.717Z,8.333333333333334
2022-10-24T16:21:59.251Z,6
2022-10-24T16:24:59.677Z,3.3333333333333335
2022-10-24T16:27:58.812Z,2
2022-10-24T16:30:59.852Z,0.6666666666666666
2022-10-24T16:33:59.059Z,0
2022-10-24T16:36:59.125Z,0
2022-10-24T16:40:00.026Z,0
2022-10-24T16:42:58.795Z,0
2022-10-24T16:45:59.457Z,1.3333333333333333
2022-10-24T16:48:59.399Z,0
2022-10-24T16:51:59.222Z,0
2022-10-24T16:54:59.331Z,0
2022-10-24T16:57:59.332Z,0
2022-10-24T17:01:00.464Z,0
2022-10-24T17:03:59.966Z,0
2022-10-24T17:06:59.255Z,0
2022-10-24T17:09:59.038Z,0.3333333333333333
2022-10-24T17:12:59.060Z,0
2022-10-24T17:15:59.160Z,0
2022-10-24T17:19:14.762Z,0
2022-10-24T17:21:59.398Z,0.3333333333333333
2022-10-24T17:24:58.420Z,0
2022-10-24T17:27:58.817Z,0.3333333333333333
2022-10-24T17:30:59.361Z,0
2022-10-24T17:33:59.219Z,0
2022-10-24T17:36:58.966Z,0
2022-10-24T17:39:59.567Z,0
2022-10-24T17:42:59.249Z,0
2022-10-24T17:45:58.929Z,1
2022-10-24T17:48:59.374Z,0
2022-10-24T17:51:59.389Z,0
2022-10-24T17:54:59.036Z,0
2022-10-24T17:57:59.551Z,0
2022-10-24T18:01:26.008Z,0
2022-10-24T18:03:59.299Z,0
2022-10-24T18:06:58.976Z,0
2022-10-24T18:09:59.159Z,0
2022-10-24T18:15:59.121Z,0
2022-10-24T18:18:58.341Z,0.3333333333333333
2022-10-24T18:21:59.164Z,0
2022-10-24T18:24:59.144Z,0
2022-10-24T18:27:58.883Z,0.6666666666666666
2022-10-24T18:30:58.866Z,0.3333333333333333
2022-10-24T18:33:59.222Z,0
2022-10-24T18:36:58.540Z,0
2022-10-24T18:39:59.814Z,0
2022-10-24T18:42:59.688Z,0.6666666666666666
2022-10-24T18:45:59.017Z,1
2022-10-24T18:48:59.368Z,0.6666666666666666
2022-10-24T18:51:59.411Z,0
2022-10-24T18:54:59.226Z,0
2022-10-24T18:57:58.584Z,0
2022-10-24T19:00:59.408Z,0
2022-10-24T19:03:58.846Z,0
2022-10-24T19:06:59.066Z,0
2022-10-24T19:09:59.326Z,0.3333333333333333
2022-10-24T19:12:59.439Z,0
2022-10-24T19:15:58.468Z,0
2022-10-24T19:18:59.346Z,0
2022-10-24T19:21:59.041Z,0
2022-10-24T19:24:58.370Z,0
2022-10-24T19:27:59.044Z,0
2022-10-24T19:30:59.306Z,0
2022-10-24T19:33:59.126Z,0
2022-10-24T19:36:59.359Z,0.3333333333333333
2022-10-24T19:39:58.916Z,0
2022-10-24T19:42:58.752Z,0.3333333333333333
2022-10-24T19:46:14.907Z,0.3333333333333333
2022-10-24T19:48:58.915Z,0
2022-10-24T19:51:59.843Z,0
2022-10-24T19:54:58.908Z,0
2022-10-24T19:57:59.096Z,0.3333333333333333
2022-10-24T20:01:00.268Z,0
2022-10-24T20:03:59.527Z,0.6666666666666666
2022-10-24T20:06:59.311Z,0
2022-10-24T20:09:59.077Z,0
2022-10-24T20:12:58.709Z,0
2022-10-24T20:15:59.560Z,0
2022-10-24T20:18:58.998Z,1
2022-10-24T20:22:01.680Z,0
2022-10-24T20:24:59.216Z,0
2022-10-24T20:27:58.755Z,0
2022-10-24T20:30:59.365Z,0
2022-10-24T20:34:03.460Z,0
2022-10-24T20:36:59.441Z,0
2022-10-24T20:39:59.301Z,0
2022-10-24T20:42:59.132Z,0
2022-10-24T20:45:59.268Z,0
2022-10-24T20:48:59.062Z,0.6666666666666666
2022-10-24T20:51:58.857Z,1.3333333333333333
2022-10-24T20:54:58.991Z,0
2022-10-24T20:57:59.207Z,0
2022-10-24T21:00:59.991Z,0
2022-10-24T21:03:58.533Z,0
2022-10-24T21:06:59.137Z,0
2022-10-24T21:09:59.792Z,0
2022-10-24T21:12:58.892Z,0.3333333333333333
2022-10-24T21:15:58.942Z,0
2022-10-24T21:18:59.376Z,0
2022-10-24T21:21:59.258Z,0
2022-10-24T21:24:59.501Z,0
2022-10-24T21:27:58.609Z,0
2022-10-24T21:30:59.528Z,0
2022-10-24T21:33:59.145Z,0
2022-10-24T21:36:58.864Z,0
2022-10-24T21:39:59.231Z,0
2022-10-24T21:42:58.359Z,0
2022-10-24T21:45:59.356Z,0
2022-10-24T21:48:59.195Z,0
2022-10-24T21:51:58.711Z,0
2022-10-24T21:54:59.017Z,0
2022-10-24T21:57:59.043Z,0
2022-10-24T22:01:00.079Z,0.6666666666666666
2022-10-24T22:03:59.171Z,0.3333333333333333
2022-10-24T22:06:58.945Z,0.3333333333333333
2022-10-24T22:09:58.774Z,0
2022-10-24T22:12:58.892Z,0
2022-10-24T22:15:59.536Z,0
2022-10-24T22:18:59.100Z,0
2022-10-24T22:21:58.754Z,0
2022-10-24T22:24:59.406Z,0
2022-10-24T22:27:58.826Z,0
2022-10-24T22:30:58.921Z,0
2022-10-24T22:33:58.491Z,0
2022-10-24T22:36:59.026Z,0
2022-10-24T22:39:59.476Z,0
2022-10-24T22:42:59.280Z,0
2022-10-24T22:45:58.271Z,0
2022-10-24T22:48:58.312Z,0
2022-10-24T22:51:58.323Z,0
2022-10-24T22:54:59.175Z,0
2022-10-24T22:57:59.320Z,0
2022-10-24T23:00:59.310Z,0
2022-10-24T23:03:58.796Z,0
2022-10-24T23:07:03.080Z,0
2022-10-24T23:09:59.014Z,0
2022-10-24T23:12:59.513Z,0
2022-10-24T23:15:58.816Z,0
2022-10-24T23:18:58.322Z,0
2022-10-24T23:21:58.905Z,0.3333333333333333
2022-10-24T23:24:58.722Z,0
2022-10-24T23:27:58.830Z,0
2022-10-24T23:30:58.885Z,0
2022-10-24T23:33:58.646Z,0.6666666666666666
2022-10-24T23:36:58.810Z,1
2022-10-24T23:39:59.638Z,0
2022-10-24T23:42:58.957Z,0
2022-10-24T23:45:59.297Z,0
2022-10-24T23:48:58.433Z,0
2022-10-24T23:51:58.670Z,0.3333333333333333
2022-10-24T23:54:58.535Z,0
2022-10-24T23:57:58.456Z,0
